createdAt,value
2018-12-16T00:01:46.830Z,-0.67
2018-12-16T00:06:42.849Z,-0.70
2018-12-16T00:11:38.880Z,-0.67
2018-12-16T00:16:34.983Z,-0.67
2018-12-16T00:21:31.133Z,-0.63
2018-12-16T00:26:32.026Z,-0.61
2018-12-16T00:31:28.052Z,-0.64
2018-12-16T00:36:24.068Z,-0.60
2018-12-16T00:41:20.129Z,-0.64
2018-12-16T00:46:16.274Z,-0.64
2018-12-16T00:51:12.285Z,-0.67
2018-12-16T00:56:08.321Z,-0.62
2018-12-16T01:01:04.443Z,-0.58
2018-12-16T01:06:00.458Z,-0.52
2018-12-16T01:10:56.599Z,-0.47
2018-12-16T01:15:52.615Z,-0.48
2018-12-16T01:20:48.675Z,-0.41
2018-12-16T01:25:44.789Z,-0.44
2018-12-16T01:30:40.793Z,-0.43
2018-12-16T01:35:36.809Z,-0.34
2018-12-16T01:40:32.849Z,-0.32
2018-12-16T01:45:28.849Z,-0.34
2018-12-16T01:50:24.865Z,-0.37
2018-12-16T01:55:20.932Z,-0.42
2018-12-16T02:00:16.964Z,-0.36
2018-12-16T02:05:12.997Z,-0.37
2018-12-16T02:10:09.247Z,-0.27
2018-12-16T02:15:05.373Z,-0.31
2018-12-16T02:20:02.321Z,-0.25
2018-12-16T02:24:58.394Z,-0.21
2018-12-16T02:29:54.401Z,-0.20
2018-12-16T02:34:50.419Z,-0.22
2018-12-16T02:39:46.437Z,-0.26
2018-12-16T02:44:42.461Z,-0.19
2018-12-16T02:49:38.479Z,-0.22
2018-12-16T02:54:34.526Z,-0.18
2018-12-16T02:59:30.826Z,-0.16
2018-12-16T03:04:27.164Z,-0.17
2018-12-16T03:09:23.189Z,-0.13
2018-12-16T03:14:19.193Z,-0.13
2018-12-16T03:19:15.254Z,-0.17
2018-12-16T03:24:11.274Z,-0.15
2018-12-16T03:29:07.284Z,-0.11
2018-12-16T03:34:03.311Z,-0.11
2018-12-16T03:38:59.420Z,-0.20
2018-12-16T03:43:55.440Z,-0.13
2018-12-16T03:48:51.472Z,-0.08
2018-12-16T03:53:47.490Z,-0.09
2018-12-16T03:58:55.970Z,-0.09
2018-12-16T04:03:52.013Z,0.00
2018-12-16T04:08:48.026Z,-0.02
2018-12-16T04:13:44.031Z,0.00
2018-12-16T04:18:40.049Z,-0.04
2018-12-16T04:23:36.065Z,-0.04
2018-12-16T04:28:32.956Z,0.03
2018-12-16T04:33:28.966Z,-0.05
2018-12-16T04:38:24.994Z,-0.03
2018-12-16T04:43:21.025Z,0.05
2018-12-16T04:48:17.078Z,0.00
2018-12-16T04:53:13.162Z,0.05
2018-12-16T04:58:10.014Z,0.07
2018-12-16T05:03:06.036Z,0.06
2018-12-16T05:08:02.233Z,0.12
2018-12-16T05:12:58.268Z,0.06
2018-12-16T05:17:54.281Z,0.06
2018-12-16T05:22:50.309Z,0.06
2018-12-16T05:27:48.336Z,0.08
2018-12-16T05:32:44.442Z,0.12
2018-12-16T05:37:40.457Z,0.13
2018-12-16T05:42:36.464Z,0.20
2018-12-16T05:47:32.475Z,0.20
2018-12-16T05:52:28.487Z,0.31
2018-12-16T05:57:25.870Z,0.27
2018-12-16T06:02:21.904Z,0.39
2018-12-16T06:07:17.915Z,0.36
2018-12-16T06:12:14.073Z,0.45
2018-12-16T06:17:10.057Z,0.53
2018-12-16T06:22:06.062Z,0.52
2018-12-16T06:27:02.080Z,0.50
2018-12-16T06:31:58.094Z,0.54
2018-12-16T06:36:54.185Z,0.51
2018-12-16T06:41:50.226Z,0.54
2018-12-16T06:46:46.248Z,0.52
2018-12-16T06:51:42.266Z,0.55
2018-12-16T06:56:38.273Z,0.52
2018-12-16T07:01:34.398Z,0.55
2018-12-16T07:06:30.444Z,0.46
2018-12-16T07:11:26.498Z,0.36
2018-12-16T07:16:22.564Z,0.30
2018-12-16T07:21:18.605Z,0.22
2018-12-16T07:26:14.653Z,0.08
2018-12-16T07:31:10.725Z,-0.06
2018-12-16T07:36:06.810Z,-0.15
2018-12-16T07:41:03.011Z,-0.16
2018-12-16T07:45:59.075Z,-0.24
2018-12-16T07:50:55.193Z,-0.29
2018-12-16T07:55:51.271Z,-0.42
2018-12-16T08:00:47.479Z,-0.37
2018-12-16T08:05:43.531Z,-0.42
2018-12-16T08:10:39.691Z,-0.32
2018-12-16T08:15:35.745Z,-0.37
2018-12-16T08:20:31.783Z,-0.33
2018-12-16T08:25:27.861Z,-0.32
2018-12-16T08:30:24.129Z,-0.24
2018-12-16T08:35:20.387Z,-0.26
2018-12-16T08:40:16.491Z,-0.11
2018-12-16T08:45:12.518Z,-0.07
2018-12-16T08:50:08.580Z,0.04
2018-12-16T08:55:04.641Z,-0.10
2018-12-16T09:00:00.725Z,-0.09
2018-12-16T09:04:56.795Z,-0.13
2018-12-16T09:09:52.877Z,-0.14
2018-12-16T09:14:48.926Z,-0.08
2018-12-16T09:19:44.982Z,-0.05
2018-12-16T09:24:41.025Z,-0.10
2018-12-16T09:29:37.053Z,-0.27
2018-12-16T09:34:33.106Z,-0.14
2018-12-16T09:39:29.193Z,-0.10
2018-12-16T09:44:25.273Z,0.03
2018-12-16T09:49:21.309Z,-0.07
2018-12-16T09:54:17.381Z,-0.24
2018-12-16T09:59:14.074Z,-0.24
2018-12-16T10:04:10.721Z,-0.21
2018-12-16T10:09:06.976Z,-0.17
2018-12-16T10:19:25.967Z,-0.07
2018-12-16T10:24:23.198Z,0.33
2018-12-16T10:29:19.317Z,0.49
2018-12-16T10:34:15.350Z,0.60
2018-12-16T10:39:11.495Z,0.67
2018-12-16T10:44:07.542Z,0.87
2018-12-16T10:49:05.002Z,0.87
2018-12-16T10:54:01.293Z,0.90
2018-12-16T10:58:57.304Z,1.04
2018-12-16T11:03:53.326Z,0.90
2018-12-16T11:08:49.684Z,0.84
2018-12-16T11:13:45.703Z,0.87
2018-12-16T11:18:41.733Z,0.85
2018-12-16T11:23:37.799Z,1.11
2018-12-16T11:28:34.503Z,1.31
2018-12-16T11:33:30.761Z,1.22
2018-12-16T11:43:54.335Z,1.20
2018-12-16T11:48:50.579Z,1.37
2018-12-16T11:53:46.803Z,1.39
2018-12-16T11:58:43.707Z,1.37
2018-12-16T12:03:39.827Z,1.64
2018-12-16T12:08:36.135Z,1.58
2018-12-16T12:13:32.360Z,1.76
2018-12-16T12:18:28.600Z,1.82
2018-12-16T12:23:24.850Z,1.82
2018-12-16T12:28:21.834Z,1.83
2018-12-16T12:33:18.215Z,1.88
2018-12-16T12:38:14.404Z,2.04
2018-12-16T12:43:10.769Z,2.25
2018-12-16T12:48:07.033Z,2.22
2018-12-16T12:53:03.976Z,2.35
2018-12-16T12:58:02.150Z,2.23
2018-12-16T13:02:58.446Z,2.04
2018-12-16T13:07:54.587Z,1.82
2018-12-16T13:12:50.748Z,1.75
2018-12-16T13:17:47.007Z,1.73
2018-12-16T13:22:43.122Z,1.76
2018-12-16T13:27:39.277Z,1.71
2018-12-16T13:32:35.373Z,1.76
2018-12-16T13:37:31.531Z,1.74
2018-12-16T13:42:28.083Z,1.46
2018-12-16T13:47:24.253Z,1.33
2018-12-16T13:52:20.333Z,1.50
2018-12-16T13:57:16.526Z,1.35
2018-12-16T14:02:12.593Z,1.18
2018-12-16T14:07:08.678Z,1.17
2018-12-16T14:12:04.873Z,1.13
2018-12-16T14:17:00.983Z,1.07
2018-12-16T14:21:57.197Z,1.07
2018-12-16T14:26:53.356Z,1.17
2018-12-16T14:31:49.430Z,1.14
2018-12-16T14:36:45.517Z,1.04
2018-12-16T14:41:41.764Z,0.96
2018-12-16T14:46:38.885Z,0.98
2018-12-16T14:51:34.951Z,1.17
2018-12-16T14:56:31.035Z,1.04
2018-12-16T15:01:27.189Z,1.06
2018-12-16T15:06:23.298Z,1.03
2018-12-16T15:11:19.375Z,1.25
2018-12-16T15:16:15.469Z,1.28
2018-12-16T15:21:11.550Z,1.00
2018-12-16T15:26:07.746Z,1.04
2018-12-16T15:31:03.838Z,0.97
2018-12-16T15:36:00.050Z,0.83
2018-12-16T15:40:56.298Z,0.93
2018-12-16T15:45:52.385Z,0.99
2018-12-16T15:50:48.429Z,0.95
2018-12-16T15:55:44.474Z,1.04
2018-12-16T16:00:40.514Z,0.95
2018-12-16T16:05:36.625Z,1.11
2018-12-16T16:10:32.793Z,1.17
2018-12-16T16:15:28.836Z,1.04
2018-12-16T16:20:24.897Z,1.09
2018-12-16T16:25:27.985Z,0.98
2018-12-16T16:30:24.036Z,1.00
2018-12-16T16:35:20.137Z,1.18
2018-12-16T16:40:16.528Z,1.28
2018-12-16T16:45:12.601Z,1.20
2018-12-16T16:50:08.663Z,1.14
2018-12-16T16:55:04.933Z,1.18
2018-12-16T17:00:00.973Z,1.52
2018-12-16T17:04:57.107Z,1.13
2018-12-16T17:09:53.255Z,1.21
2018-12-16T17:14:49.395Z,1.16
2018-12-16T17:19:45.533Z,1.22
2018-12-16T17:24:41.665Z,1.13
2018-12-16T17:29:38.397Z,1.27
2018-12-16T17:34:34.488Z,1.27
2018-12-16T17:39:32.521Z,1.44
2018-12-16T17:44:28.583Z,1.45
2018-12-16T17:49:25.778Z,1.32
2018-12-16T17:54:21.834Z,1.29
2018-12-16T17:59:18.491Z,1.51
2018-12-16T18:04:16.714Z,1.47
2018-12-16T18:09:14.645Z,1.57
2018-12-16T18:14:11.285Z,1.54
2018-12-16T18:19:07.465Z,1.36
2018-12-16T18:24:05.458Z,1.40
2018-12-16T18:29:01.693Z,1.37
2018-12-16T18:33:58.285Z,1.38
2018-12-16T18:38:54.410Z,1.46
2018-12-16T18:43:50.489Z,1.61
2018-12-16T18:48:46.528Z,1.50
2018-12-16T18:53:42.562Z,1.53
2018-12-16T18:58:38.608Z,1.58
2018-12-16T19:03:34.894Z,1.54
2018-12-16T19:08:31.050Z,1.51
2018-12-16T19:13:27.088Z,1.57
2018-12-16T19:18:24.945Z,1.60
2018-12-16T19:23:21.135Z,1.74
2018-12-16T19:28:17.888Z,1.69
2018-12-16T19:33:13.993Z,1.70
2018-12-16T19:38:10.033Z,1.70
2018-12-16T19:43:06.087Z,1.77
2018-12-16T19:48:02.135Z,1.80
2018-12-16T19:52:58.176Z,1.74
2018-12-16T19:57:56.894Z,1.87
2018-12-16T20:02:53.002Z,1.82
2018-12-16T20:07:49.296Z,1.94
2018-12-16T20:12:45.343Z,1.88
2018-12-16T20:17:41.403Z,1.75
2018-12-16T20:22:37.515Z,1.78
2018-12-16T20:27:33.646Z,1.90
2018-12-16T20:32:29.708Z,1.76
2018-12-16T20:37:25.750Z,1.63
2018-12-16T20:42:21.831Z,1.76
2018-12-16T20:47:17.932Z,1.87
2018-12-16T20:52:14.093Z,1.80
2018-12-16T20:57:10.150Z,1.84
2018-12-16T21:02:06.286Z,1.91
2018-12-16T21:07:02.439Z,1.81
2018-12-16T21:11:59.873Z,1.65
2018-12-16T21:17:01.932Z,1.70
2018-12-16T21:21:57.999Z,1.70
2018-12-16T21:26:54.058Z,1.68
2018-12-16T21:31:50.106Z,1.64
2018-12-16T21:36:46.177Z,1.64
2018-12-16T21:41:42.258Z,1.81
2018-12-16T21:46:38.307Z,1.97
2018-12-16T21:51:34.377Z,2.07
2018-12-16T21:56:30.864Z,1.96
2018-12-16T22:01:26.966Z,1.92
2018-12-16T22:06:23.019Z,1.82
2018-12-16T22:11:19.067Z,1.86
2018-12-16T22:16:15.225Z,1.87
2018-12-16T22:21:11.261Z,1.87
2018-12-16T22:26:07.297Z,1.95
2018-12-16T22:31:03.339Z,1.87
2018-12-16T22:35:59.370Z,1.75
2018-12-16T22:40:55.475Z,1.73
2018-12-16T22:45:52.583Z,1.72
2018-12-16T22:50:48.622Z,1.78
2018-12-16T22:55:44.662Z,1.79
2018-12-16T23:06:14.470Z,1.97
2018-12-16T23:11:10.487Z,1.94
2018-12-16T23:16:06.625Z,1.91
2018-12-16T23:21:05.119Z,1.85
2018-12-16T23:26:01.134Z,2.01
2018-12-16T23:30:57.270Z,2.14
2018-12-16T23:35:53.266Z,2.13
2018-12-16T23:40:49.289Z,2.22
2018-12-16T23:45:45.301Z,2.22
2018-12-16T23:50:41.317Z,2.35
2018-12-16T23:55:37.344Z,2.19
